sim
Sign-in with your pilot id or email,
or register
Callsign
Passwort

Schedule Details

Flight Number: OEO7865
Departure: Fuerteventura Airport (GCFV) at 15:40
Arrival: Munich Airport (EDDM) at 20:15

Weather Information
Getting current METAR information for GCFV 261800Z 04018KT 9999 FEW020 24/21 Q1018
Getting current METAR information for EDDM 261750Z 25022G32KT 9999 -RA BKN023 OVC042 07/04 Q1001 NOSIG

Schedule Frequency

Route Map